Time;durP1;ratioP1;P1;durP2;ratioP2;P2;SDS_P1;SDS_P2;PMS_P1;PMS_P2;Temp;Humidity;BMP_temperature;BMP_pressure;BME280_temperature;BME280_humidity;BME280_pressure;Samples;Min_cycle;Max_cycle;Signal;HPM_P1;HPM_P2
2021/11/30 00:00:48;;;;;;;7.72;4.10;;;6.90;99.90;;;;;;4978144;28;20175;-72
2021/11/30 00:03:14;;;;;;;9.02;4.72;;;6.90;99.90;;;;;;4978176;28;20171;-73
2021/11/30 00:05:40;;;;;;;9.50;4.73;;;6.90;99.90;;;;;;4994652;28;20726;-72
2021/11/30 00:08:06;;;;;;;9.83;4.83;;;6.80;99.90;;;;;;4994977;28;20208;-73
2021/11/30 00:10:45;;;;;;;8.03;4.90;;;6.80;99.90;;;;;;4995689;28;20608;-72
2021/11/30 00:13:19;;;;;;;9.40;5.25;;;6.80;99.90;;;;;;4995048;28;20573;-73
2021/11/30 00:15:47;;;;;;;9.10;5.15;;;6.80;99.90;;;;;;4978071;28;20261;-73
2021/11/30 00:18:13;;;;;;;7.93;5.10;;;6.80;99.90;;;;;;4977574;28;20218;-73
2021/11/30 00:20:41;;;;;;;6.50;5.47;;;6.80;99.90;;;;;;4978035;28;20191;-73
2021/11/30 00:23:07;;;;;;;6.95;4.20;;;6.80;99.90;;;;;;4995022;28;20171;-73
2021/11/30 00:25:34;;;;;;;7.10;5.03;;;6.80;99.90;;;;;;4995394;28;20261;-73
2021/11/30 00:28:01;;;;;;;7.93;4.90;;;6.80;99.90;;;;;;4994588;28;20179;-73
2021/11/30 00:30:27;;;;;;;6.22;4.57;;;6.80;99.90;;;;;;4977771;28;20593;-73
2021/11/30 00:32:53;;;;;;;6.17;5.30;;;6.80;99.90;;;;;;4995008;28;20226;-73
2021/11/30 00:35:22;;;;;;;9.80;5.43;;;6.80;99.90;;;;;;4993755;28;20703;-73
2021/11/30 00:37:48;;;;;;;7.95;5.50;;;6.80;99.90;;;;;;4993723;28;20258;-73
2021/11/30 00:40:14;;;;;;;7.50;4.90;;;6.80;99.90;;;;;;4994831;28;20175;-73
2021/11/30 00:42:40;;;;;;;8.13;4.45;;;6.80;99.90;;;;;;4977251;28;20194;-73
2021/11/30 00:45:08;;;;;;;6.90;4.90;;;6.80;99.90;;;;;;4994617;28;20175;-73
2021/11/30 00:47:34;;;;;;;6.80;5.15;;;6.80;99.90;;;;;;4977171;28;20924;-73
2021/11/30 00:50:04;;;;;;;9.10;5.50;;;6.80;99.90;;;;;;4994330;28;20207;-73
2021/11/30 00:52:30;;;;;;;6.88;5.28;;;6.80;99.90;;;;;;4977251;28;20179;-73
2021/11/30 00:54:57;;;;;;;7.95;6.05;;;6.80;99.90;;;;;;4994185;28;20199;-71
2021/11/30 00:57:23;;;;;;;17.02;5.88;;;6.80;99.90;;;;;;4976490;28;20373;-71
2021/11/30 00:59:51;;;;;;;10.55;6.45;;;6.80;99.90;;;;;;4993621;28;20729;-71
2021/11/30 01:02:17;;;;;;;8.93;5.65;;;6.80;99.90;;;;;;4993556;28;20529;-72
2021/11/30 01:04:43;;;;;;;9.50;5.80;;;6.80;99.90;;;;;;4993916;28;20210;-72
2021/11/30 01:07:11;;;;;;;9.93;5.93;;;6.80;99.90;;;;;;4976019;28;20645;-71
2021/11/30 01:09:39;;;;;;;9.07;5.88;;;6.90;99.90;;;;;;4992919;28;20614;-72
2021/11/30 01:12:05;;;;;;;13.75;6.25;;;6.90;99.90;;;;;;4993899;28;20179;-72
2021/11/30 01:14:31;;;;;;;9.07;5.18;;;6.80;99.90;;;;;;4994019;28;20199;-74
2021/11/30 01:16:58;;;;;;;5.97;4.22;;;6.90;99.90;;;;;;4993046;28;20503;-72
2021/11/30 01:19:25;;;;;;;4.85;4.38;;;6.80;99.90;;;;;;4976838;28;20925;-72
2021/11/30 01:21:51;;;;;;;7.72;4.55;;;6.90;99.90;;;;;;4993942;28;20159;-72
2021/11/30 01:24:17;;;;;;;10.23;5.45;;;6.90;99.90;;;;;;4976534;28;20597;-72
2021/11/30 01:26:43;;;;;;;6.20;4.20;;;6.90;99.90;;;;;;4993865;28;20179;-72
2021/11/30 01:29:09;;;;;;;6.10;4.15;;;6.90;99.90;;;;;;4976231;28;20252;-72
2021/11/30 01:31:36;;;;;;;7.57;4.68;;;6.90;99.90;;;;;;4994261;28;20175;-72
2021/11/30 01:34:03;;;;;;;6.03;4.40;;;6.90;99.90;;;;;;4992363;28;20570;-72
2021/11/30 01:36:29;;;;;;;10.23;4.68;;;6.90;99.90;;;;;;4993959;28;20167;-72
2021/11/30 01:38:55;;;;;;;7.67;4.10;;;6.90;99.90;;;;;;4993217;28;20179;-72
2021/11/30 01:41:21;;;;;;;4.57;3.17;;;6.90;99.90;;;;;;4976236;28;20924;-72
2021/11/30 01:43:48;;;;;;;5.35;3.45;;;6.90;99.90;;;;;;4993331;28;20307;-73
2021/11/30 01:46:40;;;;;;;5.80;4.10;;;6.90;99.90;;;;;;4993665;28;20202;-73
2021/11/30 01:49:29;;;;;;;5.15;2.95;;;6.90;99.90;;;;;;4991639;28;20195;-72
2021/11/30 01:51:55;;;;;;;4.65;3.38;;;6.90;99.90;;;;;;4994281;28;20186;-72
2021/11/30 01:54:21;;;;;;;5.10;3.30;;;6.90;99.90;;;;;;4993148;28;20191;-72
2021/11/30 01:56:47;;;;;;;6.47;3.70;;;6.90;99.90;;;;;;4976464;28;20171;-73
2021/11/30 01:59:13;;;;;;;5.83;3.90;;;6.90;99.90;;;;;;4993067;28;20600;-72
2021/11/30 02:01:39;;;;;;;4.37;3.10;;;6.90;99.90;;;;;;4993528;28;20575;-72
2021/11/30 02:04:06;;;;;;;5.20;2.67;;;7.00;99.90;;;;;;4993106;28;20992;-72
2021/11/30 02:06:31;;;;;;;3.80;3.28;;;7.00;99.90;;;;;;4992246;28;20177;-72
2021/11/30 02:08:57;;;;;;;4.13;3.00;;;7.00;99.90;;;;;;4992871;28;20191;-72
2021/11/30 02:11:25;;;;;;;4.73;2.73;;;7.00;99.90;;;;;;4993023;28;20178;-72
2021/11/30 02:13:51;;;;;;;4.85;2.90;;;7.00;99.90;;;;;;4992996;28;20574;-73
2021/11/30 02:16:20;;;;;;;5.75;3.85;;;7.00;99.90;;;;;;4991725;28;20206;-72
2021/11/30 02:18:47;;;;;;;5.32;3.10;;;7.10;99.90;;;;;;4975449;28;20249;-73
2021/11/30 02:21:13;;;;;;;5.18;3.15;;;7.10;99.90;;;;;;4992824;28;20255;-72
2021/11/30 02:23:43;;;;;;;4.43;2.65;;;7.10;99.90;;;;;;4992813;28;20583;-73
2021/11/30 02:26:12;;;;;;;3.35;2.80;;;7.10;99.90;;;;;;4992834;28;20185;-72
2021/11/30 02:28:42;;;;;;;8.18;2.60;;;7.10;99.90;;;;;;4992657;28;20167;-72
2021/11/30 02:31:10;;;;;;;6.05;3.15;;;7.20;99.90;;;;;;4992732;28;20177;-72
2021/11/30 02:33:37;;;;;;;8.18;2.90;;;7.20;99.90;;;;;;4992760;28;20258;-72
2021/11/30 02:36:53;;;;;;;5.05;2.50;;;7.20;99.90;;;;;;4991469;28;20564;-73
2021/11/30 02:39:23;;;;;;;4.97;2.90;;;7.20;99.90;;;;;;4992314;28;20191;-72
2021/11/30 02:41:52;;;;;;;5.75;2.75;;;7.30;99.90;;;;;;4992751;28;20548;-73
2021/11/30 02:44:20;;;;;;;3.63;1.92;;;7.30;99.90;;;;;;4992682;28;20182;-73
2021/11/30 02:46:56;;;;;;;6.22;3.50;;;7.30;99.90;;;;;;4992410;28;20175;-72
2021/11/30 02:49:28;;;;;;;3.30;2.20;;;7.30;99.90;;;;;;4992089;28;20699;-72
2021/11/30 02:52:08;;;;;;;4.20;1.90;;;7.30;99.90;;;;;;4991246;28;20269;-72
2021/11/30 02:54:36;;;;;;;2.63;1.70;;;7.20;99.90;;;;;;4992454;28;20766;-73
2021/11/30 02:57:04;;;;;;;4.20;2.55;;;7.30;99.90;;;;;;4992067;28;20660;-73
2021/11/30 02:59:33;;;;;;;4.45;2.00;;;7.30;99.90;;;;;;4992506;28;20655;-72
2021/11/30 03:02:01;;;;;;;3.63;1.63;;;7.30;99.90;;;;;;4992487;28;20167;-72
2021/11/30 03:04:27;;;;;;;2.88;1.48;;;7.30;99.90;;;;;;4992554;28;20228;-73
2021/11/30 03:06:55;;;;;;;4.55;2.50;;;7.30;99.90;;;;;;4992008;28;20183;-73
2021/11/30 03:09:21;;;;;;;2.25;1.85;;;7.20;99.90;;;;;;4992047;28;20585;-73
2021/11/30 03:11:47;;;;;;;3.47;1.92;;;7.20;99.90;;;;;;4992247;28;20257;-73
2021/11/30 03:14:13;;;;;;;2.38;1.90;;;7.20;99.90;;;;;;4991975;28;20198;-73
2021/11/30 03:16:40;;;;;;;3.57;2.27;;;7.20;99.90;;;;;;4992302;28;20175;-73
2021/11/30 03:19:07;;;;;;;2.72;1.70;;;7.10;99.90;;;;;;4991026;28;20967;-73
2021/11/30 03:21:33;;;;;;;4.13;1.95;;;7.10;99.90;;;;;;4991746;28;20170;-73
2021/11/30 03:23:59;;;;;;;6.47;2.25;;;7.10;99.90;;;;;;4991950;28;20179;-73
2021/11/30 03:26:26;;;;;;;4.75;1.70;;;7.00;99.90;;;;;;4992271;28;20549;-72
2021/11/30 03:28:52;;;;;;;4.85;2.17;;;7.00;99.90;;;;;;4991556;28;20187;-73
2021/11/30 03:31:33;;;;;;;3.90;1.80;;;6.90;99.90;;;;;;4992215;28;20163;-73
2021/11/30 03:34:04;;;;;;;2.65;1.77;;;6.90;99.90;;;;;;4991655;28;20577;-73
2021/11/30 03:36:32;;;;;;;4.38;2.10;;;6.90;99.90;;;;;;4992167;28;20167;-72
2021/11/30 03:39:00;;;;;;;5.53;2.10;;;6.80;99.90;;;;;;4991691;28;20187;-72
2021/11/30 03:41:32;;;;;;;3.55;1.95;;;6.80;99.90;;;;;;4991394;28;20175;-72
2021/11/30 03:43:58;;;;;;;4.15;1.60;;;6.80;99.90;;;;;;4991505;28;20198;-72
2021/11/30 03:46:24;;;;;;;4.07;1.83;;;6.70;99.90;;;;;;4991777;28;20171;-72
2021/11/30 03:48:50;;;;;;;3.33;1.50;;;6.70;99.90;;;;;;4990743;28;20820;-72
2021/11/30 03:51:16;;;;;;;3.50;1.63;;;6.70;99.90;;;;;;4990579;28;20254;-72
2021/11/30 03:53:42;;;;;;;2.90;1.70;;;6.70;99.90;;;;;;4957762;28;20203;-71
2021/11/30 03:56:07;;;;;;;3.40;1.50;;;6.60;99.90;;;;;;4991789;28;20221;-72
2021/11/30 03:58:33;;;;;;;3.73;1.47;;;6.60;99.90;;;;;;4991525;28;20179;-72
2021/11/30 04:00:59;;;;;;;4.10;2.10;;;6.70;99.90;;;;;;4991887;28;20258;-72
2021/11/30 04:03:28;;;;;;;2.80;1.70;;;6.60;99.90;;;;;;4991429;28;20577;-72
2021/11/30 04:05:55;;;;;;;2.10;1.50;;;6.60;99.90;;;;;;4991746;28;20172;-73
2021/11/30 04:08:20;;;;;;;1.65;1.25;;;6.60;99.90;;;;;;4958248;28;20543;-73
2021/11/30 04:10:46;;;;;;;1.70;1.10;;;6.60;99.90;;;;;;4974423;28;20171;-73
2021/11/30 04:13:12;;;;;;;1.60;0.90;;;6.60;99.90;;;;;;4990464;28;20182;-73
2021/11/30 04:15:38;;;;;;;1.85;1.15;;;6.70;99.90;;;;;;4991667;28;20622;-73
2021/11/30 04:18:04;;;;;;;2.20;1.10;;;6.60;99.90;;;;;;4991131;28;20173;-73
2021/11/30 04:20:33;;;;;;;1.73;0.90;;;6.70;99.90;;;;;;4991553;28;20730;-73
2021/11/30 04:22:59;;;;;;;1.88;0.95;;;6.70;99.90;;;;;;4991664;28;20229;-73
2021/11/30 04:25:25;;;;;;;1.70;0.88;;;6.70;99.90;;;;;;4991443;28;20544;-72
2021/11/30 04:27:51;;;;;;;2.35;0.85;;;6.70;99.90;;;;;;4991498;28;20171;-73
2021/11/30 04:30:17;;;;;;;1.57;0.90;;;6.70;99.90;;;;;;4990224;28;20241;-73
2021/11/30 04:32:43;;;;;;;1.87;0.87;;;6.70;99.90;;;;;;4991191;28;20576;-73
2021/11/30 04:35:10;;;;;;;1.83;1.13;;;6.80;99.90;;;;;;4994541;28;20329;-73
2021/11/30 04:37:37;;;;;;;2.72;0.90;;;6.80;99.90;;;;;;4994472;28;20167;-73
2021/11/30 04:40:09;;;;;;;2.70;1.17;;;6.80;99.90;;;;;;4994990;28;20191;-73
2021/11/30 04:42:36;;;;;;;2.15;0.70;;;6.80;99.90;;;;;;4994483;28;20218;-73
2021/11/30 04:45:08;;;;;;;1.88;0.80;;;6.80;99.90;;;;;;4994954;28;20225;-73
2021/11/30 04:47:37;;;;;;;1.20;0.70;;;6.90;99.90;;;;;;4994384;28;20172;-73
2021/11/30 04:50:09;;;;;;;1.30;0.60;;;6.90;99.90;;;;;;4994778;28;20245;-73
2021/11/30 04:52:37;;;;;;;1.50;0.68;;;6.90;99.90;;;;;;4977103;28;20171;-73
2021/11/30 04:55:03;;;;;;;1.30;0.70;;;7.00;99.90;;;;;;4994983;28;20191;-72
2021/11/30 04:57:29;;;;;;;1.30;0.60;;;7.00;99.90;;;;;;4994283;28;20205;-73
2021/11/30 04:59:55;;;;;;;2.00;0.70;;;7.00;99.90;;;;;;4994780;28;20187;-73
2021/11/30 05:02:21;;;;;;;1.27;0.60;;;7.00;99.90;;;;;;4994282;28;20329;-73
2021/11/30 05:04:47;;;;;;;1.40;0.70;;;7.00;99.90;;;;;;4994318;28;20179;-72
2021/11/30 05:07:15;;;;;;;1.20;0.80;;;7.00;99.90;;;;;;4993943;28;20171;-73
2021/11/30 05:09:41;;;;;;;2.55;0.82;;;7.10;99.90;;;;;;4994475;28;20656;-74
2021/11/30 05:12:08;;;;;;;1.92;1.10;;;7.10;99.90;;;;;;4994263;28;20388;-72
2021/11/30 05:14:34;;;;;;;1.90;0.90;;;7.10;99.90;;;;;;4994265;28;20605;-73
2021/11/30 05:17:00;;;;;;;1.20;0.70;;;7.10;99.90;;;;;;4994176;28;20229;-73
2021/11/30 05:19:26;;;;;;;1.20;0.70;;;7.20;99.90;;;;;;4993770;28;20233;-72
2021/11/30 05:21:52;;;;;;;1.37;0.80;;;7.20;99.90;;;;;;4976942;28;20257;-72
2021/11/30 05:24:20;;;;;;;2.28;0.80;;;7.20;99.90;;;;;;4993971;28;20217;-72
2021/11/30 05:26:47;;;;;;;1.50;0.85;;;7.20;99.90;;;;;;4976825;28;20171;-72
2021/11/30 05:29:13;;;;;;;1.20;0.80;;;7.30;99.90;;;;;;4993433;28;20202;-72
2021/11/30 05:31:39;;;;;;;1.30;0.80;;;7.30;99.90;;;;;;4994190;28;20178;-73
2021/11/30 05:34:04;;;;;;;1.30;0.80;;;7.30;99.90;;;;;;4976269;28;20253;-72
2021/11/30 05:36:33;;;;;;;3.00;0.93;;;7.30;99.90;;;;;;4994080;28;20631;-72
2021/11/30 05:39:00;;;;;;;2.63;0.82;;;7.30;99.90;;;;;;4976119;28;20218;-73
2021/11/30 05:41:27;;;;;;;1.35;0.80;;;7.30;99.90;;;;;;4993886;28;20762;-72
2021/11/30 05:43:53;;;;;;;1.83;0.90;;;7.30;99.90;;;;;;4993433;28;20163;-72
2021/11/30 05:46:19;;;;;;;1.50;0.98;;;7.30;99.90;;;;;;4993883;28;20788;-72
2021/11/30 05:48:45;;;;;;;1.25;0.80;;;7.30;99.90;;;;;;4993490;28;20666;-72
2021/11/30 05:51:11;;;;;;;1.97;0.93;;;7.30;99.90;;;;;;4993621;28;20205;-73
2021/11/30 05:53:37;;;;;;;3.90;1.75;;;7.40;99.90;;;;;;4976217;28;20171;-73
2021/11/30 05:56:07;;;;;;;1.77;1.07;;;7.40;99.90;;;;;;4959907;28;20213;-73
2021/11/30 05:58:37;;;;;;;1.40;1.00;;;7.40;99.90;;;;;;4993275;28;20663;-73
2021/11/30 06:01:11;;;;;;;1.40;1.00;;;7.40;99.90;;;;;;4992215;28;20183;-73
2021/11/30 06:06:35;;;;;;;1.60;1.20;;;7.50;99.90;;;;;;4996936;28;20179;-73
2021/11/30 06:09:03;;;;;;;1.40;0.90;;;7.50;99.90;;;;;;4975808;28;20198;-73
2021/11/30 06:11:28;;;;;;;1.30;0.90;;;7.50;99.90;;;;;;4993285;28;20175;-73
2021/11/30 06:13:54;;;;;;;2.97;0.80;;;7.60;99.90;;;;;;4993303;28;20179;-73
2021/11/30 06:16:21;;;;;;;1.40;1.10;;;7.60;99.90;;;;;;4993302;28;20195;-73
2021/11/30 06:18:47;;;;;;;2.67;1.23;;;7.60;99.90;;;;;;4975770;28;20183;-73
2021/11/30 06:21:13;;;;;;;1.70;0.85;;;7.70;99.90;;;;;;4993118;28;20572;-73
2021/11/30 06:23:40;;;;;;;1.88;0.98;;;7.70;99.90;;;;;;4993033;28;20174;-73
2021/11/30 06:26:11;;;;;;;3.30;0.90;;;7.70;99.90;;;;;;4993064;28;20189;-73
2021/11/30 06:28:37;;;;;;;1.70;1.35;;;7.80;99.90;;;;;;4975143;28;20196;-73
2021/11/30 06:31:04;;;;;;;1.73;1.30;;;7.70;99.90;;;;;;4993139;28;20254;-72
2021/11/30 06:33:31;;;;;;;2.40;1.10;;;7.80;99.90;;;;;;4992824;28;20670;-72
2021/11/30 06:35:57;;;;;;;1.73;1.55;;;7.90;99.90;;;;;;4992885;28;20206;-72
2021/11/30 06:38:23;;;;;;;1.75;1.63;;;7.90;99.90;;;;;;4992400;28;20171;-72
2021/11/30 06:40:50;;;;;;;3.90;2.00;;;7.90;99.90;;;;;;4992738;28;20544;-72
2021/11/30 06:43:16;;;;;;;3.47;1.75;;;8.00;99.90;;;;;;4992467;28;20562;-72
2021/11/30 06:45:42;;;;;;;2.60;2.00;;;8.00;99.90;;;;;;4992854;28;20654;-73
2021/11/30 06:48:08;;;;;;;2.25;1.85;;;8.00;99.90;;;;;;4992733;28;20724;-73
2021/11/30 06:50:35;;;;;;;2.77;1.93;;;8.00;99.90;;;;;;4992449;28;20301;-73
2021/11/30 06:53:01;;;;;;;2.47;2.00;;;8.10;99.90;;;;;;4991673;28;20632;-73
2021/11/30 06:55:27;;;;;;;2.05;1.95;;;8.10;99.90;;;;;;4992181;28;20349;-73
2021/11/30 06:57:52;;;;;;;4.53;1.63;;;8.20;99.90;;;;;;4974755;28;20258;-73
2021/11/30 07:00:21;;;;;;;1.93;1.70;;;8.20;99.90;;;;;;4992490;28;20244;-73
2021/11/30 07:02:48;;;;;;;1.75;1.50;;;8.30;99.90;;;;;;4992636;28;20167;-73
2021/11/30 07:05:24;;;;;;;1.88;1.45;;;8.30;99.90;;;;;;4974959;28;20183;-73
2021/11/30 07:10:35;;;;;;;2.25;1.60;;;8.40;99.90;;;;;;4972797;28;20191;-73
2021/11/30 07:13:14;;;;;;;2.10;1.90;;;8.40;99.90;;;;;;4973046;28;20168;-73
2021/11/30 07:15:40;;;;;;;1.67;1.55;;;8.50;99.90;;;;;;4972848;28;20650;-74
2021/11/30 07:18:06;;;;;;;2.15;1.23;;;8.50;99.90;;;;;;4971603;28;20242;-73
2021/11/30 07:20:32;;;;;;;5.37;1.77;;;8.60;99.90;;;;;;4972945;28;20187;-73
2021/11/30 07:22:58;;;;;;;1.73;1.10;;;8.60;99.90;;;;;;4955749;28;20703;-74
2021/11/30 07:25:25;;;;;;;2.40;1.20;;;8.60;99.90;;;;;;4971442;28;20674;-74
2021/11/30 07:27:52;;;;;;;2.15;1.88;;;8.70;99.90;;;;;;4972871;28;20179;-74
2021/11/30 07:30:19;;;;;;;1.77;1.35;;;8.70;99.90;;;;;;4975282;28;20195;-73
2021/11/30 07:32:44;;;;;;;2.22;1.10;;;8.70;99.90;;;;;;4972798;28;20179;-74
2021/11/30 07:35:10;;;;;;;1.97;1.43;;;8.70;99.90;;;;;;4955470;28;20759;-74
2021/11/30 07:37:36;;;;;;;3.87;1.63;;;8.80;99.90;;;;;;4954979;28;20578;-74
2021/11/30 07:40:03;;;;;;;1.65;1.33;;;8.80;99.90;;;;;;4972562;28;20591;-73
2021/11/30 07:42:33;;;;;;;2.47;1.23;;;8.80;99.90;;;;;;4972433;28;20553;-74
2021/11/30 07:44:59;;;;;;;1.73;1.48;;;8.90;99.90;;;;;;4984282;28;20182;-74
2021/11/30 07:47:26;;;;;;;2.10;1.55;;;8.90;99.90;;;;;;4958227;28;20214;-74
2021/11/30 07:49:52;;;;;;;1.50;1.40;;;8.90;99.90;;;;;;4991078;28;20205;-73
2021/11/30 07:52:18;;;;;;;3.97;1.70;;;9.00;99.90;;;;;;4991788;28;20175;-73
2021/11/30 07:54:48;;;;;;;2.05;1.85;;;9.00;99.90;;;;;;4989942;28;20331;-74
2021/11/30 07:57:14;;;;;;;2.65;1.60;;;9.00;99.90;;;;;;4974990;28;20509;-73
2021/11/30 07:59:40;;;;;;;2.45;1.70;;;9.00;99.90;;;;;;4991736;28;20191;-73
2021/11/30 08:02:06;;;;;;;3.70;1.43;;;9.00;99.90;;;;;;4991821;28;20182;-73
2021/11/30 08:04:32;;;;;;;2.30;2.03;;;9.00;99.90;;;;;;4991695;28;20694;-72
2021/11/30 08:06:59;;;;;;;2.45;1.80;;;9.10;99.90;;;;;;4973536;28;20179;-72
2021/11/30 08:09:26;;;;;;;2.40;1.60;;;9.10;99.90;;;;;;4984454;28;20580;-72
2021/11/30 08:11:54;;;;;;;1.90;1.70;;;9.20;99.90;;;;;;4995186;28;20251;-74
2021/11/30 08:14:21;;;;;;;2.65;1.90;;;9.20;99.90;;;;;;4995747;28;20281;-72
2021/11/30 08:16:47;;;;;;;3.90;1.80;;;9.20;99.90;;;;;;4975810;28;20171;-73
2021/11/30 08:19:13;;;;;;;2.95;1.45;;;9.30;99.90;;;;;;4996391;28;20238;-73
2021/11/30 08:21:39;;;;;;;1.93;1.40;;;9.30;99.90;;;;;;4995377;28;20902;-74
2021/11/30 08:24:05;;;;;;;3.33;1.30;;;9.30;99.90;;;;;;4994944;28;20186;-73
2021/11/30 08:26:31;;;;;;;1.55;1.10;;;9.40;99.90;;;;;;4995300;28;20964;-73
2021/11/30 08:28:57;;;;;;;1.80;1.33;;;9.40;99.90;;;;;;4994700;28;20202;-73
2021/11/30 08:31:22;;;;;;;2.43;1.47;;;9.40;99.90;;;;;;4977839;28;20766;-73
2021/11/30 08:33:48;;;;;;;2.10;1.47;;;9.50;99.90;;;;;;4994680;28;20514;-73
2021/11/30 08:36:14;;;;;;;1.60;1.10;;;9.50;99.90;;;;;;4994947;28;20694;-72
2021/11/30 08:38:41;;;;;;;1.98;1.42;;;9.50;99.90;;;;;;4993873;28;20174;-73
2021/11/30 08:41:07;;;;;;;2.40;1.60;;;9.50;99.90;;;;;;4994728;28;20222;-74
2021/11/30 08:43:33;;;;;;;4.25;3.08;;;9.50;99.90;;;;;;4987156;28;20171;-74
2021/11/30 08:45:59;;;;;;;2.90;2.50;;;9.60;99.90;;;;;;4958214;28;20179;-72
2021/11/30 08:48:25;;;;;;;2.15;1.63;;;9.50;99.90;;;;;;4975152;28;20641;-74
2021/11/30 08:50:53;;;;;;;3.00;2.30;;;9.60;99.90;;;;;;4974694;28;20171;-73
2021/11/30 08:53:19;;;;;;;2.20;1.85;;;9.60;99.90;;;;;;4975222;28;20163;-72
2021/11/30 08:55:46;;;;;;;2.57;1.70;;;9.60;99.90;;;;;;4974920;28;20199;-72
2021/11/30 08:58:12;;;;;;;1.75;1.52;;;9.60;99.90;;;;;;4957925;28;20560;-72
2021/11/30 09:00:38;;;;;;;1.77;1.50;;;9.70;99.90;;;;;;4957194;28;20279;-72
2021/11/30 09:03:04;;;;;;;2.03;1.50;;;9.70;99.90;;;;;;4957729;28;20571;-72
2021/11/30 09:05:30;;;;;;;2.00;1.80;;;9.70;99.90;;;;;;4974465;28;20206;-72
2021/11/30 09:07:57;;;;;;;3.78;1.80;;;9.70;99.90;;;;;;4974541;28;20629;-73
2021/11/30 09:10:23;;;;;;;2.58;1.58;;;9.70;99.90;;;;;;4957460;28;20201;-74
2021/11/30 09:12:50;;;;;;;2.53;1.33;;;9.70;99.90;;;;;;4957500;28;20268;-75
2021/11/30 09:15:17;;;;;;;1.50;1.30;;;9.70;99.90;;;;;;4974655;28;20224;-74
2021/11/30 09:17:44;;;;;;;2.25;1.52;;;9.80;99.90;;;;;;4974845;28;20747;-73
2021/11/30 09:20:11;;;;;;;2.15;1.20;;;9.80;99.90;;;;;;4976212;28;20192;-73
2021/11/30 09:22:37;;;;;;;2.17;1.90;;;9.80;99.90;;;;;;4957499;28;20179;-74
2021/11/30 09:25:05;;;;;;;1.65;1.40;;;9.80;99.90;;;;;;4973536;28;20270;-73
2021/11/30 09:27:31;;;;;;;2.75;1.88;;;9.80;99.90;;;;;;4957111;28;20207;-73
2021/11/30 09:29:59;;;;;;;2.53;2.27;;;9.90;99.90;;;;;;4973212;28;20237;-73
2021/11/30 09:32:31;;;;;;;1.70;1.60;;;9.90;99.90;;;;;;4983202;28;20728;-73
2021/11/30 09:34:59;;;;;;;2.45;2.10;;;9.90;99.90;;;;;;4976828;28;20289;-73
2021/11/30 09:37:26;;;;;;;1.95;1.77;;;9.90;99.90;;;;;;4994216;28;20178;-73
2021/11/30 09:39:52;;;;;;;2.67;2.05;;;9.90;99.90;;;;;;4994039;28;20198;-73
2021/11/30 09:42:18;;;;;;;2.00;1.80;;;9.90;99.90;;;;;;4993860;28;20178;-73
2021/11/30 09:44:45;;;;;;;2.33;1.85;;;10.00;99.90;;;;;;4993688;28;21151;-73
2021/11/30 09:47:13;;;;;;;2.20;1.75;;;9.90;99.90;;;;;;4993811;28;20190;-73
2021/11/30 09:49:40;;;;;;;1.75;1.38;;;9.90;99.90;;;;;;4993649;28;20582;-73
2021/11/30 09:52:06;;;;;;;1.60;1.50;;;10.00;99.90;;;;;;4993847;28;20183;-73
2021/11/30 09:54:32;;;;;;;1.60;1.20;;;10.00;99.90;;;;;;4993549;28;20194;-73
2021/11/30 09:56:58;;;;;;;2.07;1.60;;;10.00;99.90;;;;;;4994116;28;20174;-73
2021/11/30 09:59:24;;;;;;;1.40;1.10;;;10.00;99.90;;;;;;4992702;28;20179;-73
2021/11/30 10:01:50;;;;;;;3.00;1.43;;;10.10;99.90;;;;;;4973940;28;20178;-73
2021/11/30 10:04:16;;;;;;;1.50;1.08;;;10.10;99.90;;;;;;4990620;28;20262;-73
2021/11/30 10:06:42;;;;;;;2.25;1.40;;;10.20;99.90;;;;;;4973996;28;20179;-73
2021/11/30 10:09:20;;;;;;;1.30;1.00;;;10.20;99.90;;;;;;4991621;28;20183;-73
2021/11/30 10:11:55;;;;;;;2.78;2.05;;;10.20;99.90;;;;;;4990582;28;20569;-73
2021/11/30 10:14:25;;;;;;;4.15;2.75;;;10.20;99.90;;;;;;4992825;28;20205;-73
2021/11/30 10:17:16;;;;;;;3.40;2.28;;;10.20;99.90;;;;;;4993191;28;20175;-72
2021/11/30 10:19:49;;;;;;;2.97;2.10;;;10.30;99.90;;;;;;4993161;28;20270;-73
2021/11/30 10:22:32;;;;;;;5.32;3.25;;;10.30;99.90;;;;;;4993294;28;20170;-73
2021/11/30 10:25:17;;;;;;;4.43;3.22;;;10.30;99.90;;;;;;4993415;28;20174;-72
2021/11/30 10:27:47;;;;;;;3.13;2.70;;;10.30;99.90;;;;;;4992887;28;20265;-72
2021/11/30 10:30:21;;;;;;;5.80;2.80;;;10.40;99.90;;;;;;4992858;28;20195;-72
2021/11/30 10:32:50;;;;;;;4.78;2.67;;;10.40;99.90;;;;;;4992389;28;20350;-72
2021/11/30 10:35:17;;;;;;;3.10;1.95;;;10.40;99.90;;;;;;4996367;28;20588;-73
2021/11/30 10:37:45;;;;;;;2.95;1.60;;;10.50;99.90;;;;;;4993087;28;20264;-73
2021/11/30 10:40:18;;;;;;;1.88;1.25;;;10.50;99.90;;;;;;4992998;28;20261;-74
2021/11/30 10:42:52;;;;;;;1.70;1.20;;;10.50;99.90;;;;;;4991800;28;20179;-74
2021/11/30 10:45:46;;;;;;;1.55;1.17;;;10.50;99.90;;;;;;4991440;28;20666;-74
2021/11/30 10:48:18;;;;;;;1.58;1.02;;;10.50;99.90;;;;;;4990612;28;20191;-74
2021/11/30 10:50:54;;;;;;;1.60;0.95;;;10.50;99.90;;;;;;4992333;28;20595;-74
2021/11/30 10:53:24;;;;;;;1.40;1.00;;;10.60;99.90;;;;;;4975384;28;20178;-73
2021/11/30 10:55:59;;;;;;;2.28;1.45;;;10.60;99.90;;;;;;4992513;28;20619;-73
2021/11/30 10:58:27;;;;;;;1.50;1.10;;;10.60;99.90;;;;;;4974455;28;20178;-73
2021/11/30 11:00:55;;;;;;;2.50;1.48;;;10.60;99.90;;;;;;4974646;28;20201;-73
2021/11/30 11:03:22;;;;;;;1.50;1.25;;;10.60;99.90;;;;;;4992132;28;20170;-74
2021/11/30 11:06:36;;;;;;;1.55;1.08;;;10.70;99.90;;;;;;4975064;28;20175;-73
2021/11/30 11:08:48;;;;;;;2.20;1.52;;;10.60;99.90;;;;;;4974696;28;20187;-73
2021/11/30 11:11:24;;;;;;;1.98;1.05;;;10.70;99.90;;;;;;4992590;28;20240;-73
2021/11/30 11:13:54;;;;;;;1.50;1.10;;;10.70;99.90;;;;;;4993332;28;20167;-73
2021/11/30 11:16:34;;;;;;;1.40;0.98;;;10.70;99.90;;;;;;4974596;28;20206;-74
2021/11/30 11:19:06;;;;;;;1.23;0.90;;;10.70;99.90;;;;;;4995522;28;20706;-74
2021/11/30 11:21:36;;;;;;;1.40;0.98;;;10.70;99.90;;;;;;4992505;28;20167;-73
2021/11/30 11:24:13;;;;;;;2.25;0.93;;;10.80;99.90;;;;;;4974814;28;20174;-73
2021/11/30 11:26:47;;;;;;;1.77;1.40;;;10.70;99.90;;;;;;4992158;28;20159;-74
2021/11/30 11:29:18;;;;;;;3.35;1.00;;;10.70;99.90;;;;;;4991863;28;20190;-73
2021/11/30 11:31:52;;;;;;;1.70;1.00;;;10.70;99.90;;;;;;4974787;28;20171;-73
2021/11/30 11:34:21;;;;;;;2.17;1.20;;;10.80;99.90;;;;;;4991895;28;20221;-73
2021/11/30 11:36:49;;;;;;;1.30;0.93;;;10.80;99.90;;;;;;4992229;28;20167;-73
2021/11/30 11:39:23;;;;;;;2.70;1.08;;;10.80;99.90;;;;;;4990897;28;20210;-72
2021/11/30 11:41:52;;;;;;;1.20;0.90;;;10.80;99.90;;;;;;4992229;28;20171;-73
2021/11/30 11:44:19;;;;;;;2.10;1.13;;;10.80;99.90;;;;;;4995802;28;20555;-73
2021/11/30 11:46:48;;;;;;;1.98;0.80;;;10.80;99.90;;;;;;4978685;28;20635;-73
2021/11/30 11:49:21;;;;;;;1.25;0.80;;;10.80;99.90;;;;;;4962286;28;20702;-73
2021/11/30 11:51:50;;;;;;;3.38;1.25;;;10.80;99.90;;;;;;4995742;28;20163;-73
2021/11/30 11:54:35;;;;;;;1.48;1.00;;;10.90;99.90;;;;;;4995868;28;20259;-73
2021/11/30 11:57:04;;;;;;;1.38;0.70;;;10.80;99.90;;;;;;4994174;28;20537;-73
2021/11/30 11:59:34;;;;;;;1.30;0.90;;;10.90;99.90;;;;;;4995861;28;20195;-73
2021/11/30 12:02:21;;;;;;;1.50;1.20;;;10.90;99.90;;;;;;4995705;28;20254;-73
2021/11/30 12:04:53;;;;;;;1.83;1.10;;;10.90;99.90;;;;;;4978499;28;20224;-74
2021/11/30 12:07:21;;;;;;;1.70;1.10;;;10.90;99.90;;;;;;4995744;28;20175;-74
2021/11/30 12:09:47;;;;;;;2.03;1.02;;;10.90;99.90;;;;;;4994649;28;20191;-74
2021/11/30 12:12:22;;;;;;;2.92;1.73;;;11.00;99.90;;;;;;4995778;28;20262;-74
2021/11/30 12:14:59;;;;;;;2.13;1.50;;;11.00;99.90;;;;;;4994040;28;20206;-73
2021/11/30 12:17:25;;;;;;;1.50;1.05;;;11.00;99.90;;;;;;4995641;28;20514;-73
2021/11/30 12:20:05;;;;;;;1.30;0.80;;;11.00;99.90;;;;;;4978227;28;20199;-74
2021/11/30 12:22:58;;;;;;;1.67;0.82;;;11.00;99.90;;;;;;4961708;28;20578;-74
2021/11/30 12:25:30;;;;;;;1.20;0.70;;;11.00;99.90;;;;;;4995668;28;20183;-74
2021/11/30 12:28:04;;;;;;;1.33;0.82;;;11.10;99.90;;;;;;4995863;28;20256;-74
2021/11/30 12:30:48;;;;;;;1.10;0.70;;;11.10;99.90;;;;;;4995641;28;20537;-74
2021/11/30 12:33:32;;;;;;;1.20;0.85;;;11.10;99.90;;;;;;4995792;28;20175;-74
2021/11/30 12:36:00;;;;;;;1.48;0.90;;;11.10;99.90;;;;;;4995349;28;20203;-74
2021/11/30 12:38:35;;;;;;;1.17;0.65;;;11.10;99.90;;;;;;4995279;28;20543;-73
2021/11/30 12:41:23;;;;;;;1.27;0.70;;;11.10;99.90;;;;;;4995250;28;20575;-74
2021/11/30 12:43:51;;;;;;;1.20;0.80;;;11.10;99.90;;;;;;4994151;28;20187;-74
2021/11/30 12:46:32;;;;;;;1.80;0.80;;;11.20;99.90;;;;;;4995861;28;20183;-74
2021/11/30 12:48:58;;;;;;;1.30;0.90;;;11.20;99.90;;;;;;4999698;28;20198;-74
2021/11/30 12:51:24;;;;;;;1.60;1.15;;;11.20;99.90;;;;;;5001241;28;20218;-74
2021/11/30 12:53:50;;;;;;;3.33;2.00;;;11.20;99.90;;;;;;5000423;28;20190;-75
2021/11/30 12:56:43;;;;;;;2.03;1.35;;;11.20;99.90;;;;;;4998752;28;20198;-75
2021/11/30 12:59:08;;;;;;;1.42;1.13;;;11.20;99.90;;;;;;4992049;28;20193;-75
2021/11/30 13:01:34;;;;;;;1.50;1.10;;;11.20;99.90;;;;;;4988819;28;20231;-77
2021/11/30 13:04:33;;;;;;;1.20;0.90;;;11.20;99.90;;;;;;4984331;28;20611;-77
2021/11/30 13:07:07;;;;;;;1.40;0.98;;;11.20;99.90;;;;;;4978364;28;20176;-77
2021/11/30 13:09:56;;;;;;;4.53;1.50;;;11.20;99.90;;;;;;4979053;28;20305;-78